createdAt,value
2022-11-04T00:03:02.665Z,87.33
2022-11-04T00:08:24.564Z,86.98
2022-11-04T00:13:30.402Z,87.23
2022-11-04T00:18:35.829Z,87.39
2022-11-04T00:24:04.944Z,87.53
2022-11-04T00:29:07.744Z,87.25
2022-11-04T00:34:10.669Z,87.23
2022-11-04T00:39:13.546Z,87.53
2022-11-04T00:44:16.477Z,87.64
2022-11-04T00:49:19.266Z,87.46
2022-11-04T00:54:22.632Z,87.33
2022-11-04T00:59:25.537Z,87.29
2022-11-04T01:04:28.418Z,87.48
2022-11-04T01:09:31.195Z,87.53
2022-11-04T01:14:34.281Z,87.65
2022-11-04T01:19:38.112Z,87.63
2022-11-04T01:24:41.250Z,87.36
2022-11-04T01:29:44.260Z,87.19
2022-11-04T01:34:47.146Z,87.35
2022-11-04T01:39:50.070Z,87.62
2022-11-04T01:44:58.255Z,87.06
2022-11-04T01:50:24.106Z,87.08
2022-11-04T01:55:36.110Z,87.26
2022-11-04T02:00:40.114Z,87.32
2022-11-04T02:05:43.006Z,87.13
2022-11-04T02:10:52.860Z,87.13
2022-11-04T02:16:12.019Z,87.24
2022-11-04T02:22:06.973Z,87.14
2022-11-04T02:27:40.568Z,86.60
2022-11-04T02:33:18.915Z,86.32
2022-11-04T02:38:29.792Z,86.23
2022-11-04T02:44:13.127Z,86.49
2022-11-04T02:49:44.534Z,86.31
2022-11-04T02:55:01.021Z,86.21
2022-11-04T03:00:09.605Z,86.32
2022-11-04T03:05:19.876Z,85.90
2022-11-04T03:10:36.004Z,85.82
2022-11-04T03:15:40.527Z,86.11
2022-11-04T03:20:43.475Z,85.88
2022-11-04T03:25:48.256Z,85.60
2022-11-04T03:30:53.341Z,85.64
2022-11-04T03:35:56.232Z,85.27
2022-11-04T03:40:59.097Z,85.47
2022-11-04T03:46:02.022Z,85.20
2022-11-04T03:51:04.910Z,84.94
2022-11-04T03:56:45.038Z,85.30
2022-11-04T04:01:54.404Z,85.24
2022-11-04T04:07:05.741Z,84.73
2022-11-04T04:12:22.163Z,84.67
2022-11-04T04:17:52.785Z,84.44
2022-11-04T04:23:25.568Z,84.12
2022-11-04T04:28:28.471Z,84.03
2022-11-04T04:33:31.382Z,83.89
2022-11-04T04:38:53.274Z,84.03
2022-11-04T04:44:16.480Z,84.14
2022-11-04T04:49:19.352Z,83.85
2022-11-04T04:54:22.317Z,83.99
2022-11-04T04:59:25.271Z,84.05
2022-11-04T05:04:28.069Z,84.07
2022-11-04T05:09:31.007Z,83.97
2022-11-04T05:14:33.799Z,83.75
2022-11-04T05:19:36.842Z,83.86
2022-11-04T05:24:39.659Z,84.08
2022-11-04T05:29:42.811Z,84.01
2022-11-04T05:34:45.633Z,84.05
2022-11-04T05:39:48.521Z,84.41
2022-11-04T05:44:51.289Z,84.07
2022-11-04T05:49:56.864Z,84.29
2022-11-04T05:55:00.029Z,83.99
2022-11-04T06:00:03.492Z,83.95
2022-11-04T06:05:07.424Z,83.72
2022-11-04T06:10:10.999Z,83.70
2022-11-04T06:15:13.912Z,83.55
2022-11-04T06:20:16.876Z,83.48
2022-11-04T06:25:19.735Z,83.24
2022-11-04T06:30:23.815Z,83.00
2022-11-04T06:35:26.701Z,82.78
2022-11-04T06:40:41.937Z,82.93
2022-11-04T06:45:44.818Z,82.84
2022-11-04T06:50:47.675Z,82.79
2022-11-04T06:55:52.333Z,82.47
2022-11-04T07:00:55.314Z,82.20
2022-11-04T07:05:58.293Z,82.17
2022-11-04T07:11:01.700Z,81.69
2022-11-04T07:16:06.492Z,81.36
2022-11-04T07:21:10.472Z,81.66
2022-11-04T07:26:13.895Z,81.29
2022-11-04T07:31:18.178Z,80.82
2022-11-04T07:36:21.047Z,80.96
2022-11-04T07:41:24.039Z,81.05
2022-11-04T07:46:26.888Z,80.48
2022-11-04T07:51:32.273Z,80.32
2022-11-04T07:56:35.068Z,79.92
2022-11-04T08:01:37.976Z,79.87
2022-11-04T08:06:40.826Z,79.79
2022-11-04T08:11:43.599Z,79.21
2022-11-04T08:16:46.409Z,79.13
2022-11-04T08:21:49.213Z,78.74
2022-11-04T08:26:52.093Z,78.57
2022-11-04T08:31:55.071Z,78.73
2022-11-04T08:36:58.819Z,78.18
2022-11-04T08:42:01.648Z,77.44
2022-11-04T08:47:04.658Z,77.34
2022-11-04T08:52:07.595Z,77.41
2022-11-04T08:57:10.373Z,77.40
2022-11-04T09:02:16.458Z,76.92
2022-11-04T09:07:19.466Z,76.20
2022-11-04T09:12:22.285Z,76.20
2022-11-04T09:17:25.414Z,76.18
2022-11-04T09:22:28.419Z,76.02
2022-11-04T09:27:31.190Z,75.61
2022-11-04T09:32:35.997Z,75.68
2022-11-04T09:37:38.804Z,75.47
2022-11-04T09:42:53.205Z,75.87
2022-11-04T09:48:00.508Z,76.09
2022-11-04T09:53:12.893Z,75.69
2022-11-04T09:58:15.827Z,75.08
2022-11-04T10:03:44.528Z,75.01
2022-11-04T10:08:50.537Z,75.23
2022-11-04T10:14:19.203Z,75.08
2022-11-04T10:19:31.179Z,74.55
2022-11-04T10:24:50.611Z,74.25
2022-11-04T10:30:00.066Z,73.86
2022-11-04T10:35:47.551Z,73.44
2022-11-04T10:40:52.952Z,72.70
2022-11-04T10:46:31.236Z,72.30
2022-11-04T10:51:37.380Z,72.22
2022-11-04T10:56:51.644Z,71.76
2022-11-04T11:01:59.462Z,71.09
2022-11-04T11:07:05.585Z,70.17
2022-11-04T11:12:48.877Z,70.12
2022-11-04T11:17:38.491Z,69.57
2022-11-04T11:22:43.720Z,69.54
2022-11-04T11:27:52.296Z,68.76
2022-11-04T11:32:58.822Z,68.20
2022-11-04T11:38:04.180Z,68.01
2022-11-04T11:43:07.291Z,67.45
2022-11-04T11:48:32.531Z,66.77
2022-11-04T11:53:38.490Z,65.88
2022-11-04T12:09:50.846Z,65.78
2022-11-04T12:15:39.296Z,65.33
2022-11-04T12:21:03.669Z,64.03
2022-11-04T12:26:36.763Z,64.89
2022-11-04T12:32:03.898Z,64.75
2022-11-04T12:37:39.057Z,64.79
2022-11-04T12:43:07.565Z,64.43
2022-11-04T12:48:19.520Z,64.09
2022-11-04T12:53:45.693Z,64.41
2022-11-04T12:59:00.877Z,63.44
2022-11-04T13:04:07.272Z,63.52
2022-11-04T13:09:45.706Z,63.73
2022-11-04T13:14:53.081Z,63.18
2022-11-04T13:20:00.557Z,62.12
2022-11-04T13:25:25.232Z,62.73
2022-11-04T13:30:57.320Z,62.59
2022-11-04T13:36:13.546Z,62.86
2022-11-04T13:41:21.257Z,62.52
2022-11-04T13:46:31.009Z,62.64
2022-11-04T13:52:01.576Z,63.14
2022-11-04T13:57:16.133Z,63.45
2022-11-04T14:02:23.838Z,63.55
2022-11-04T14:07:58.912Z,63.88
2022-11-04T14:13:35.214Z,64.45
2022-11-04T14:18:43.108Z,64.71
2022-11-04T14:23:56.995Z,64.83
2022-11-04T14:29:18.207Z,65.29
2022-11-04T14:34:30.328Z,65.50
2022-11-04T14:39:37.940Z,65.70
2022-11-04T14:44:49.826Z,66.07
2022-11-04T14:50:08.728Z,66.53
2022-11-04T14:55:11.583Z,66.71
2022-11-04T15:00:39.374Z,66.94
2022-11-04T15:05:51.335Z,67.26
2022-11-04T15:11:00.132Z,67.61
2022-11-04T15:16:28.626Z,68.23
2022-11-04T15:21:31.506Z,68.51
2022-11-04T15:26:35.289Z,68.70
2022-11-04T15:31:39.461Z,68.99
2022-11-04T15:36:43.009Z,69.46
2022-11-04T15:42:05.250Z,69.85
2022-11-04T15:47:17.457Z,70.08
2022-11-04T15:52:27.982Z,70.23
2022-11-04T15:57:35.148Z,70.30
2022-11-04T16:02:40.385Z,70.67
2022-11-04T16:07:45.064Z,71.03
2022-11-04T16:12:47.867Z,70.88
2022-11-04T16:17:50.690Z,71.08
2022-11-04T16:23:18.025Z,71.58
2022-11-04T16:28:21.300Z,71.72
2022-11-04T16:33:24.285Z,71.79
2022-11-04T16:38:27.260Z,71.79
2022-11-04T16:43:30.066Z,71.88
2022-11-04T16:48:33.008Z,72.02
2022-11-04T16:53:35.900Z,72.59
2022-11-04T16:58:38.856Z,72.34
2022-11-04T17:03:45.507Z,72.23
2022-11-04T17:08:48.348Z,72.24
2022-11-04T17:13:51.291Z,72.44
2022-11-04T17:18:54.098Z,72.59
2022-11-04T17:23:57.057Z,72.39
2022-11-04T17:29:00.270Z,72.34
2022-11-04T17:34:03.618Z,72.39
2022-11-04T17:39:06.436Z,72.64
2022-11-04T17:44:09.317Z,72.81
2022-11-04T17:49:20.779Z,73.14
2022-11-04T17:54:25.324Z,73.07
2022-11-04T17:59:32.419Z,73.16
2022-11-04T18:04:38.391Z,73.31
2022-11-04T18:09:41.675Z,73.36
2022-11-04T18:14:44.829Z,73.46
2022-11-04T18:19:47.689Z,73.50
2022-11-04T18:24:50.672Z,73.51
2022-11-04T18:29:53.949Z,73.64
2022-11-04T18:34:57.656Z,74.06
2022-11-04T18:40:00.517Z,73.81
2022-11-04T18:45:03.662Z,73.83
2022-11-04T18:50:07.225Z,73.63
2022-11-04T18:55:10.226Z,73.72
2022-11-04T19:00:17.006Z,74.03
2022-11-04T19:05:20.553Z,73.77
2022-11-04T19:10:23.458Z,73.84
2022-11-04T19:15:26.568Z,73.49
2022-11-04T19:20:29.494Z,73.93
2022-11-04T19:25:32.384Z,73.84
2022-11-04T19:30:35.957Z,73.83
2022-11-04T19:35:38.871Z,73.75
2022-11-04T19:40:52.769Z,73.83
2022-11-04T19:46:04.399Z,73.93
2022-11-04T19:51:12.053Z,73.98
2022-11-04T19:56:15.991Z,73.60
2022-11-04T20:01:19.060Z,73.91
2022-11-04T20:06:21.942Z,74.15
2022-11-04T20:11:25.112Z,74.21
2022-11-04T20:16:30.112Z,74.25
2022-11-04T20:21:36.095Z,74.19
2022-11-04T20:26:39.592Z,74.41
2022-11-04T20:31:51.559Z,74.77
2022-11-04T20:36:54.492Z,74.76
2022-11-04T20:41:57.352Z,74.49
2022-11-04T20:47:00.241Z,74.61
2022-11-04T20:52:03.405Z,74.87
2022-11-04T20:57:06.341Z,75.16
2022-11-04T21:02:10.931Z,75.40
2022-11-04T21:07:14.108Z,75.32
2022-11-04T21:12:19.107Z,75.16
2022-11-04T21:17:22.074Z,75.25
2022-11-04T21:22:25.038Z,75.79
2022-11-04T21:27:27.899Z,75.47
2022-11-04T21:32:31.321Z,75.53
2022-11-04T21:37:37.020Z,75.58
2022-11-04T21:42:40.196Z,75.61
2022-11-04T21:47:43.068Z,75.77
2022-11-04T21:52:46.025Z,75.83
2022-11-04T21:57:48.868Z,75.69
2022-11-04T22:02:51.856Z,75.54
2022-11-04T22:08:13.811Z,75.82
2022-11-04T22:13:16.669Z,76.26
2022-11-04T22:18:19.437Z,75.86
2022-11-04T22:23:22.431Z,75.62
2022-11-04T22:28:25.312Z,75.82
2022-11-04T22:33:31.741Z,75.68
2022-11-04T22:38:35.656Z,75.59
2022-11-04T22:43:38.559Z,75.76
2022-11-04T22:48:41.460Z,75.93
2022-11-04T22:53:44.489Z,76.06
2022-11-04T22:58:47.320Z,75.78
2022-11-04T23:03:52.112Z,75.64
2022-11-04T23:09:00.306Z,75.82
2022-11-04T23:14:22.205Z,75.89
2022-11-04T23:19:30.627Z,76.07
2022-11-04T23:24:52.815Z,75.90
2022-11-04T23:30:14.590Z,76.23
2022-11-04T23:35:36.840Z,75.99
2022-11-04T23:40:39.801Z,76.14
2022-11-04T23:46:01.342Z,76.22
2022-11-04T23:51:22.887Z,75.78
2022-11-04T23:56:45.619Z,75.77
